createdAt,value
2019-03-21T00:01:15.081Z,39.32
2019-03-21T00:03:47.993Z,39.34
2019-03-21T00:06:18.567Z,39.36
2019-03-21T00:08:48.916Z,39.38
2019-03-21T00:11:55.076Z,39.40
2019-03-21T00:14:51.054Z,39.41
2019-03-21T00:17:30.493Z,39.43
2019-03-21T00:20:00.676Z,39.44
2019-03-21T00:22:31.029Z,39.46
2019-03-21T00:25:02.423Z,39.49
2019-03-21T00:27:33.073Z,39.51
2019-03-21T00:30:05.140Z,39.53
2019-03-21T00:32:35.379Z,39.53
2019-03-21T00:35:08.408Z,39.57
2019-03-21T00:37:38.718Z,39.58
2019-03-21T00:40:19.931Z,39.59
2019-03-21T00:42:50.379Z,39.63
2019-03-21T00:45:20.663Z,39.64
2019-03-21T00:47:51.264Z,39.65
2019-03-21T00:50:24.453Z,39.68
2019-03-21T00:52:56.273Z,39.69
2019-03-21T00:55:29.673Z,39.72
2019-03-21T00:57:59.948Z,39.75
2019-03-21T01:00:54.291Z,39.76
2019-03-21T01:03:24.529Z,39.78
2019-03-21T01:05:54.779Z,39.80
2019-03-21T01:08:25.386Z,39.80
2019-03-21T01:10:55.657Z,39.84
2019-03-21T01:13:30.795Z,39.82
2019-03-21T01:16:01.066Z,39.86
2019-03-21T01:18:31.303Z,39.89
2019-03-21T01:21:01.738Z,39.91
2019-03-21T01:23:32.309Z,39.94
2019-03-21T01:26:08.110Z,39.96
2019-03-21T01:28:38.852Z,39.95
2019-03-21T01:31:09.498Z,40.00
2019-03-21T01:33:40.119Z,40.02
2019-03-21T01:36:10.775Z,40.04
2019-03-21T01:38:42.462Z,40.04
2019-03-21T01:41:15.322Z,40.08
2019-03-21T01:43:45.535Z,40.11
2019-03-21T01:46:24.670Z,40.13
2019-03-21T01:48:55.250Z,40.15
2019-03-21T01:51:25.563Z,40.16
2019-03-21T01:53:56.397Z,40.20
2019-03-21T01:56:28.566Z,40.22
2019-03-21T01:58:59.187Z,40.25
2019-03-21T02:01:29.523Z,40.26
2019-03-21T02:03:59.737Z,40.30
2019-03-21T02:06:30.002Z,40.33
2019-03-21T02:09:00.206Z,40.35
2019-03-21T02:11:32.342Z,40.37
2019-03-21T02:14:03.073Z,40.43
2019-03-21T02:16:33.703Z,40.45
2019-03-21T02:19:04.358Z,40.47
2019-03-21T02:21:34.642Z,40.48
2019-03-21T02:24:05.522Z,40.50
2019-03-21T02:26:36.081Z,40.54
2019-03-21T02:29:06.738Z,40.57
2019-03-21T02:31:37.023Z,40.61
2019-03-21T02:34:07.683Z,40.63
2019-03-21T02:36:38.276Z,40.68
2019-03-21T02:39:08.474Z,40.70
2019-03-21T02:41:38.729Z,40.74
2019-03-21T02:44:08.959Z,40.78
2019-03-21T02:46:39.175Z,40.79
2019-03-21T02:49:09.742Z,40.83
2019-03-21T02:51:40.417Z,40.85
2019-03-21T02:54:10.774Z,40.90
2019-03-21T02:56:41.020Z,40.91
2019-03-21T02:59:11.233Z,40.96
2019-03-21T03:01:41.457Z,41.00
2019-03-21T03:04:12.061Z,41.03
2019-03-21T03:06:42.372Z,41.06
2019-03-21T03:09:12.693Z,41.10
2019-03-21T03:11:43.162Z,41.14
2019-03-21T03:14:13.723Z,41.17
2019-03-21T03:16:44.103Z,41.20
2019-03-21T03:19:14.666Z,41.22
2019-03-21T03:21:44.976Z,41.27
2019-03-21T03:24:15.621Z,41.29
2019-03-21T03:26:46.883Z,41.33
2019-03-21T03:29:17.116Z,41.34
2019-03-21T03:31:47.352Z,41.39
2019-03-21T03:34:17.935Z,41.43
2019-03-21T03:36:48.211Z,41.46
2019-03-21T03:39:18.441Z,41.51
2019-03-21T03:41:48.654Z,41.54
2019-03-21T03:44:19.250Z,41.56
2019-03-21T03:46:49.537Z,41.60
2019-03-21T03:49:19.754Z,41.65
2019-03-21T03:51:49.964Z,41.66
2019-03-21T03:54:20.442Z,41.68
2019-03-21T03:56:50.888Z,41.73
2019-03-21T03:59:21.138Z,41.76
2019-03-21T04:01:52.189Z,41.81
2019-03-21T04:04:22.720Z,41.83
2019-03-21T04:06:52.929Z,41.88
2019-03-21T04:09:23.241Z,41.89
2019-03-21T04:11:53.542Z,41.96
2019-03-21T04:14:23.755Z,42.00
2019-03-21T04:16:54.322Z,41.99
2019-03-21T04:19:24.951Z,42.05
2019-03-21T04:21:55.253Z,42.09
2019-03-21T04:24:26.539Z,42.13
2019-03-21T04:26:56.775Z,42.17
2019-03-21T04:29:27.055Z,42.21
2019-03-21T04:31:57.662Z,42.24
2019-03-21T04:34:28.385Z,42.27
2019-03-21T04:36:59.087Z,42.33
2019-03-21T04:39:29.372Z,42.34
2019-03-21T04:41:59.600Z,42.39
2019-03-21T04:44:30.167Z,42.43
2019-03-21T04:47:00.541Z,42.45
2019-03-21T04:49:30.780Z,42.50
2019-03-21T04:52:02.414Z,42.53
2019-03-21T04:54:32.700Z,42.56
2019-03-21T04:57:02.913Z,42.62
2019-03-21T04:59:33.157Z,42.66
2019-03-21T05:02:03.371Z,42.69
2019-03-21T05:04:33.610Z,42.73
2019-03-21T05:07:04.193Z,42.77
2019-03-21T05:09:34.519Z,42.79
2019-03-21T05:12:04.796Z,42.85
2019-03-21T05:14:35.414Z,42.88
2019-03-21T05:17:05.726Z,42.92
2019-03-21T05:19:35.940Z,42.94
2019-03-21T05:22:06.522Z,42.99
2019-03-21T05:24:36.839Z,43.03
2019-03-21T05:27:07.428Z,43.08
2019-03-21T05:29:38.104Z,43.10
2019-03-21T05:32:08.384Z,43.12
2019-03-21T05:34:38.962Z,43.17
2019-03-21T05:37:09.595Z,43.23
2019-03-21T05:39:40.247Z,43.25
2019-03-21T05:42:12.707Z,43.29
2019-03-21T05:44:43.710Z,43.33
2019-03-21T05:47:14.510Z,43.40
2019-03-21T05:49:45.331Z,43.41
2019-03-21T05:52:15.653Z,43.45
2019-03-21T05:54:45.868Z,43.49
2019-03-21T05:57:16.468Z,43.52
2019-03-21T05:59:46.746Z,43.55
2019-03-21T06:02:17.026Z,43.57
2019-03-21T06:04:47.614Z,43.61
2019-03-21T06:07:23.233Z,43.66
2019-03-21T06:09:53.916Z,43.72
2019-03-21T06:12:24.208Z,43.73
2019-03-21T06:14:57.492Z,43.78
2019-03-21T06:17:28.693Z,43.83
2019-03-21T06:20:04.091Z,43.86
2019-03-21T06:22:47.619Z,43.92
2019-03-21T06:25:28.417Z,43.96
2019-03-21T06:27:58.693Z,44.00
2019-03-21T06:30:28.927Z,44.05
2019-03-21T06:32:59.141Z,44.10
2019-03-21T06:35:29.371Z,44.13
2019-03-21T06:37:59.982Z,44.16
2019-03-21T06:40:30.780Z,44.20
2019-03-21T06:43:01.061Z,44.24
2019-03-21T06:45:31.634Z,44.26
2019-03-21T06:48:02.317Z,44.31
2019-03-21T06:50:32.591Z,44.34
2019-03-21T06:53:03.455Z,44.38
2019-03-21T06:55:35.177Z,44.41
2019-03-21T06:58:06.411Z,44.45
2019-03-21T07:00:38.707Z,44.50
2019-03-21T07:03:10.424Z,44.54
2019-03-21T07:05:40.658Z,44.58
2019-03-21T07:08:11.385Z,44.61
2019-03-21T07:10:42.190Z,44.64
2019-03-21T07:13:13.473Z,44.69
2019-03-21T07:15:43.738Z,44.71
2019-03-21T07:18:13.952Z,44.74
2019-03-21T07:20:44.256Z,44.76
2019-03-21T07:23:14.796Z,44.81
2019-03-21T07:25:45.439Z,44.82
2019-03-21T07:28:16.140Z,44.85
2019-03-21T07:30:46.563Z,44.88
2019-03-21T07:33:16.841Z,44.91
2019-03-21T07:35:47.275Z,44.95
2019-03-21T07:38:18.868Z,44.98
2019-03-21T07:40:49.202Z,45.05
2019-03-21T07:43:22.283Z,45.08
2019-03-21T07:45:52.459Z,45.12
2019-03-21T07:48:22.713Z,45.16
2019-03-21T07:50:53.329Z,45.18
2019-03-21T07:53:23.603Z,45.20
2019-03-21T07:55:56.588Z,45.20
2019-03-21T07:58:27.354Z,45.20
2019-03-21T08:00:58.070Z,45.20
2019-03-21T08:03:28.727Z,45.21
2019-03-21T08:06:06.785Z,45.20
2019-03-21T08:08:39.912Z,45.22
2019-03-21T08:11:10.093Z,45.25
2019-03-21T08:13:40.690Z,45.25
2019-03-21T08:16:11.422Z,45.28
2019-03-21T08:18:44.783Z,45.33
2019-03-21T08:21:15.186Z,45.32
2019-03-21T08:23:46.615Z,45.31
2019-03-21T08:26:16.898Z,45.31
2019-03-21T08:28:52.468Z,45.32
2019-03-21T08:31:22.850Z,45.31
2019-03-21T08:33:54.966Z,45.32
2019-03-21T08:36:25.809Z,45.30
2019-03-21T08:38:56.482Z,45.30
2019-03-21T08:41:27.194Z,45.28
2019-03-21T08:43:57.875Z,45.23
2019-03-21T08:46:28.176Z,45.21
2019-03-21T08:48:59.314Z,45.17
2019-03-21T08:51:29.645Z,45.15
2019-03-21T08:54:02.055Z,45.09
2019-03-21T08:56:32.349Z,45.07
2019-03-21T08:59:02.954Z,45.04
2019-03-21T09:01:33.934Z,45.04
2019-03-21T09:04:04.533Z,45.01
2019-03-21T09:06:35.177Z,44.94
2019-03-21T09:09:09.112Z,44.86
2019-03-21T09:11:41.757Z,44.79
2019-03-21T09:14:12.559Z,44.73
2019-03-21T09:16:42.860Z,44.66
2019-03-21T09:19:14.895Z,44.64
2019-03-21T09:21:45.582Z,44.64
2019-03-21T09:24:16.290Z,44.66
2019-03-21T09:26:46.704Z,44.71
2019-03-21T09:29:18.583Z,44.68
2019-03-21T09:31:49.857Z,44.67
2019-03-21T09:34:23.119Z,44.64
2019-03-21T09:36:53.774Z,44.64
2019-03-21T09:39:24.821Z,44.61
2019-03-21T09:41:55.615Z,44.59
2019-03-21T09:44:31.415Z,44.56
2019-03-21T09:47:06.100Z,44.57
2019-03-21T09:49:40.974Z,44.57
2019-03-21T09:52:13.111Z,44.59
2019-03-21T09:54:43.447Z,44.65
2019-03-21T09:57:14.155Z,44.71
2019-03-21T09:59:50.966Z,44.71
2019-03-21T10:02:22.737Z,44.68
2019-03-21T10:04:53.939Z,44.68
2019-03-21T10:07:26.090Z,44.62
2019-03-21T10:09:56.330Z,44.55
2019-03-21T10:12:26.618Z,44.51
2019-03-21T10:14:57.224Z,44.50
2019-03-21T10:17:28.788Z,44.50
2019-03-21T10:19:59.799Z,44.48
2019-03-21T10:22:34.722Z,44.49
2019-03-21T10:25:07.661Z,44.49
2019-03-21T10:27:37.963Z,44.45
2019-03-21T10:30:18.716Z,44.43
2019-03-21T10:32:49.877Z,44.43
2019-03-21T10:35:22.742Z,44.41
2019-03-21T10:37:53.435Z,44.36
2019-03-21T10:40:23.816Z,44.34
2019-03-21T10:42:54.413Z,44.32
2019-03-21T10:45:24.719Z,44.33
2019-03-21T10:47:55.255Z,44.31
2019-03-21T10:50:41.030Z,44.30
2019-03-21T10:53:11.354Z,44.30
2019-03-21T10:55:41.689Z,44.29
2019-03-21T10:58:12.343Z,44.20
2019-03-21T11:00:43.143Z,44.13
2019-03-21T11:03:14.365Z,44.02
2019-03-21T11:05:44.623Z,43.94
2019-03-21T11:08:15.005Z,43.88
2019-03-21T11:10:47.245Z,43.85
2019-03-21T11:13:18.703Z,43.81
2019-03-21T11:15:49.403Z,43.78
2019-03-21T11:18:20.069Z,43.72
2019-03-21T11:20:50.878Z,43.65
2019-03-21T11:23:21.769Z,43.60
2019-03-21T11:25:53.201Z,43.52
2019-03-21T11:28:23.859Z,43.42
2019-03-21T11:30:56.417Z,43.34
2019-03-21T11:33:26.696Z,43.27
2019-03-21T11:35:56.956Z,43.22
2019-03-21T11:38:28.193Z,43.14
2019-03-21T11:40:58.789Z,43.07
2019-03-21T11:43:29.304Z,43.04
2019-03-21T11:46:02.457Z,43.02
2019-03-21T11:48:32.724Z,42.96
2019-03-21T11:51:03.285Z,42.95
2019-03-21T11:53:34.045Z,42.90
2019-03-21T11:56:04.374Z,42.88
2019-03-21T11:58:34.647Z,42.87
2019-03-21T12:01:05.331Z,42.83
2019-03-21T12:03:35.678Z,42.81
2019-03-21T12:06:05.980Z,42.78
2019-03-21T12:08:36.204Z,42.76
2019-03-21T12:11:06.534Z,42.75
2019-03-21T12:13:37.093Z,42.72
2019-03-21T12:16:07.343Z,42.70
2019-03-21T12:18:37.574Z,42.61
2019-03-21T12:21:07.869Z,42.57
2019-03-21T12:23:38.412Z,42.50
2019-03-21T12:26:09.105Z,42.45
2019-03-21T12:28:39.449Z,42.42
2019-03-21T12:31:09.867Z,42.43
2019-03-21T12:33:40.509Z,42.36
2019-03-21T12:36:11.168Z,42.33
2019-03-21T12:38:41.574Z,42.29
2019-03-21T12:41:16.440Z,42.31
2019-03-21T12:43:48.645Z,42.28
2019-03-21T12:46:18.926Z,42.25
2019-03-21T12:48:49.529Z,42.22
2019-03-21T12:51:20.210Z,42.22
2019-03-21T12:53:50.941Z,42.20
2019-03-21T12:56:23.310Z,42.17
2019-03-21T12:58:53.902Z,42.16
2019-03-21T13:01:24.404Z,42.12
2019-03-21T13:03:54.760Z,42.06
2019-03-21T13:06:25.086Z,42.03
2019-03-21T13:08:55.662Z,41.99
2019-03-21T13:11:26.334Z,41.95
2019-03-21T13:13:56.984Z,41.92
2019-03-21T13:16:27.487Z,41.92
2019-03-21T13:18:57.818Z,41.93
2019-03-21T13:21:28.139Z,41.94
2019-03-21T13:23:58.472Z,41.94
2019-03-21T13:26:29.286Z,41.96
2019-03-21T13:29:01.181Z,41.94
2019-03-21T13:31:31.758Z,41.92
2019-03-21T13:34:02.510Z,41.89
2019-03-21T13:36:32.960Z,41.83
2019-03-21T13:39:04.366Z,41.77
2019-03-21T13:41:36.374Z,41.74
2019-03-21T13:44:10.003Z,41.70
2019-03-21T13:46:40.371Z,41.65
2019-03-21T13:49:11.155Z,41.61
2019-03-21T13:51:41.955Z,41.57
2019-03-21T13:54:12.740Z,41.50
2019-03-21T13:56:43.257Z,41.48
2019-03-21T13:59:14.592Z,41.49
2019-03-21T14:01:45.263Z,41.42
2019-03-21T14:04:16.026Z,41.40
2019-03-21T14:06:46.858Z,41.36
2019-03-21T14:09:20.247Z,41.31
2019-03-21T14:11:50.381Z,41.28
2019-03-21T14:14:20.964Z,41.24
2019-03-21T14:16:53.083Z,41.21
2019-03-21T14:19:23.650Z,41.19
2019-03-21T14:21:54.449Z,41.17
2019-03-21T14:24:24.925Z,41.13
2019-03-21T14:26:55.232Z,41.11
2019-03-21T14:29:25.617Z,41.09
2019-03-21T14:31:55.872Z,41.08
2019-03-21T14:34:26.153Z,41.08
2019-03-21T14:36:56.391Z,41.11
2019-03-21T14:39:26.874Z,41.11
2019-03-21T14:41:57.600Z,41.11
2019-03-21T14:44:28.403Z,41.13
2019-03-21T14:46:58.862Z,41.15
2019-03-21T14:49:30.809Z,41.17
2019-03-21T14:52:01.116Z,41.15
2019-03-21T14:54:31.332Z,41.13
2019-03-21T14:57:01.922Z,41.12
2019-03-21T14:59:32.626Z,41.12
2019-03-21T15:02:03.030Z,41.07
2019-03-21T15:04:33.433Z,41.07
2019-03-21T15:07:04.162Z,41.08
2019-03-21T15:09:34.944Z,41.07
2019-03-21T15:12:05.711Z,41.07
2019-03-21T15:14:36.670Z,41.08
2019-03-21T15:17:07.104Z,41.08
2019-03-21T15:19:39.370Z,41.11
2019-03-21T15:22:10.203Z,41.10
2019-03-21T15:24:42.281Z,41.14
2019-03-21T15:27:13.689Z,41.16
2019-03-21T15:29:44.825Z,41.14
2019-03-21T15:32:15.158Z,41.13
2019-03-21T15:34:45.732Z,41.17
2019-03-21T15:37:16.028Z,41.20
2019-03-21T15:39:46.606Z,41.21
2019-03-21T15:42:16.959Z,41.22
2019-03-21T15:44:47.519Z,41.24
2019-03-21T15:47:17.836Z,41.27
2019-03-21T15:49:48.637Z,41.28
2019-03-21T15:52:18.962Z,41.30
2019-03-21T15:54:49.526Z,41.33
2019-03-21T15:57:19.850Z,41.34
2019-03-21T15:59:52.457Z,41.37
2019-03-21T16:02:22.357Z,41.39
2019-03-21T16:04:52.789Z,41.40
2019-03-21T16:07:23.010Z,41.41
2019-03-21T16:09:53.228Z,41.43
2019-03-21T16:12:23.908Z,41.45
2019-03-21T16:14:54.653Z,41.44
2019-03-21T16:17:24.940Z,41.47
2019-03-21T16:19:55.573Z,41.48
2019-03-21T16:22:26.249Z,41.50
2019-03-21T16:24:56.546Z,41.55
2019-03-21T16:27:27.538Z,41.55
2019-03-21T16:30:00.780Z,41.57
2019-03-21T16:32:31.158Z,41.59
2019-03-21T16:35:01.465Z,41.61
2019-03-21T16:37:32.066Z,41.63
2019-03-21T16:40:02.707Z,41.65
2019-03-21T16:42:33.347Z,41.65
2019-03-21T16:45:05.630Z,41.70
2019-03-21T16:47:36.252Z,41.73
2019-03-21T16:50:15.586Z,41.74
2019-03-21T16:52:48.722Z,41.77
2019-03-21T16:55:19.379Z,41.78
2019-03-21T16:57:49.850Z,41.81
2019-03-21T17:00:22.131Z,41.83
2019-03-21T17:02:52.974Z,41.86
2019-03-21T17:05:23.346Z,41.89
2019-03-21T17:07:53.646Z,41.94
2019-03-21T17:10:23.995Z,41.96
2019-03-21T17:12:54.232Z,42.00
2019-03-21T17:15:26.054Z,42.02
2019-03-21T17:17:58.451Z,42.07
2019-03-21T17:20:28.934Z,42.10
2019-03-21T17:23:00.568Z,42.14
2019-03-21T17:25:31.557Z,42.17
2019-03-21T17:28:01.997Z,42.19
2019-03-21T17:30:32.578Z,42.22
2019-03-21T17:33:02.930Z,42.24
2019-03-21T17:35:36.331Z,42.28
2019-03-21T17:38:07.003Z,42.30
2019-03-21T17:40:37.662Z,42.36
2019-03-21T17:43:07.982Z,42.37
2019-03-21T17:45:38.229Z,42.41
2019-03-21T17:48:08.449Z,42.46
2019-03-21T17:50:38.750Z,42.50
2019-03-21T17:53:09.276Z,42.53
2019-03-21T17:55:39.766Z,42.58
2019-03-21T17:58:11.534Z,42.62
2019-03-21T18:00:42.192Z,42.65
2019-03-21T18:03:12.871Z,42.69
2019-03-21T18:05:43.108Z,42.74
2019-03-21T18:08:13.716Z,42.75
2019-03-21T18:10:44.494Z,42.80
2019-03-21T18:13:16.332Z,42.85
2019-03-21T18:15:47.067Z,42.89
2019-03-21T18:18:17.806Z,42.92
2019-03-21T18:20:48.457Z,42.99
2019-03-21T18:23:19.151Z,43.01
2019-03-21T18:25:49.994Z,43.07
2019-03-21T18:28:20.892Z,43.08
2019-03-21T18:30:51.281Z,43.14
2019-03-21T18:33:21.891Z,43.19
2019-03-21T18:35:52.477Z,43.25
2019-03-21T18:38:24.316Z,43.27
2019-03-21T18:40:56.546Z,43.32
2019-03-21T18:43:27.296Z,43.37
2019-03-21T18:45:57.590Z,43.41
2019-03-21T18:48:27.821Z,43.42
2019-03-21T18:50:58.468Z,43.48
2019-03-21T18:53:30.060Z,43.54
2019-03-21T18:56:00.772Z,43.58
2019-03-21T18:58:32.190Z,43.61
2019-03-21T19:01:02.764Z,43.65
2019-03-21T19:03:33.474Z,43.70
2019-03-21T19:06:05.811Z,43.75
2019-03-21T19:08:36.112Z,43.77
2019-03-21T19:11:07.945Z,43.81
2019-03-21T19:13:38.527Z,43.85
2019-03-21T19:16:10.431Z,43.88
2019-03-21T19:18:40.948Z,43.91
2019-03-21T19:21:11.267Z,43.94
2019-03-21T19:23:41.549Z,44.00
2019-03-21T19:26:11.792Z,44.04
2019-03-21T19:28:42.058Z,44.08
2019-03-21T19:31:12.316Z,44.11
2019-03-21T19:33:42.894Z,44.15
2019-03-21T19:36:13.208Z,44.22
2019-03-21T19:38:43.546Z,44.27
2019-03-21T19:41:14.198Z,44.31
2019-03-21T19:43:44.908Z,44.38
2019-03-21T19:46:18.094Z,44.42
2019-03-21T19:48:50.400Z,44.48
2019-03-21T19:51:20.684Z,44.56
2019-03-21T19:53:50.977Z,44.62
2019-03-21T19:56:21.245Z,44.72
2019-03-21T19:58:51.825Z,44.77
2019-03-21T20:01:22.210Z,44.83
2019-03-21T20:03:52.454Z,44.89
2019-03-21T20:06:22.677Z,44.93
2019-03-21T20:08:52.906Z,45.00
2019-03-21T20:11:24.752Z,45.06
2019-03-21T20:13:55.502Z,45.13
2019-03-21T20:16:25.887Z,45.18
2019-03-21T20:18:56.545Z,45.22
2019-03-21T20:21:27.099Z,45.31
2019-03-21T20:23:57.323Z,45.38
2019-03-21T20:26:27.784Z,45.41
2019-03-21T20:28:58.255Z,45.48
2019-03-21T20:31:28.535Z,45.55
2019-03-21T20:33:59.410Z,45.61
2019-03-21T20:36:29.702Z,45.65
2019-03-21T20:38:59.982Z,45.73
2019-03-21T20:41:30.418Z,45.79
2019-03-21T20:44:01.277Z,45.86
2019-03-21T20:46:31.595Z,45.93
2019-03-21T20:49:01.826Z,45.99
2019-03-21T20:51:33.847Z,46.03
2019-03-21T20:54:07.397Z,46.09
2019-03-21T20:56:36.654Z,46.14
2019-03-21T20:59:07.705Z,46.21
2019-03-21T21:01:38.244Z,46.25
2019-03-21T21:04:12.771Z,46.33
2019-03-21T21:06:51.708Z,46.39
2019-03-21T21:09:24.031Z,46.45
2019-03-21T21:11:54.796Z,46.50
2019-03-21T21:14:25.735Z,46.57
2019-03-21T21:16:56.582Z,46.61
2019-03-21T21:19:28.249Z,46.67
2019-03-21T21:22:02.326Z,46.71
2019-03-21T21:24:32.924Z,46.78
2019-03-21T21:27:04.695Z,46.83
2019-03-21T21:29:36.828Z,46.88
2019-03-21T21:32:10.286Z,46.93
2019-03-21T21:34:45.978Z,46.97
2019-03-21T21:37:16.633Z,47.02
2019-03-21T21:39:47.410Z,47.08
2019-03-21T21:42:20.325Z,47.15
2019-03-21T21:44:50.927Z,47.20
2019-03-21T21:47:21.451Z,47.26
2019-03-21T21:49:52.492Z,47.30
2019-03-21T21:52:23.669Z,47.34
2019-03-21T21:54:54.485Z,47.41
2019-03-21T21:57:24.786Z,47.47
2019-03-21T21:59:57.969Z,47.51
2019-03-21T22:02:28.305Z,47.53
2019-03-21T22:05:00.424Z,47.61
2019-03-21T22:07:31.019Z,47.65
2019-03-21T22:10:01.330Z,47.70
2019-03-21T22:12:31.786Z,47.75
2019-03-21T22:15:02.390Z,47.79
2019-03-21T22:17:32.752Z,47.87
2019-03-21T22:20:03.718Z,47.89
2019-03-21T22:22:34.502Z,47.95
2019-03-21T22:25:08.401Z,48.01
2019-03-21T22:27:38.696Z,48.06
2019-03-21T22:30:15.110Z,48.11
2019-03-21T22:32:47.371Z,48.17
2019-03-21T22:35:18.040Z,48.22
2019-03-21T22:37:48.324Z,48.27
2019-03-21T22:40:22.030Z,48.31
2019-03-21T22:42:52.268Z,48.37
2019-03-21T22:45:22.921Z,48.43
2019-03-21T22:47:53.198Z,48.47
2019-03-21T22:50:25.295Z,48.52
2019-03-21T22:52:56.831Z,48.59
2019-03-21T22:55:28.972Z,48.63
2019-03-21T22:57:59.299Z,48.69
2019-03-21T23:00:35.464Z,48.74
2019-03-21T23:03:07.001Z,48.79
2019-03-21T23:05:37.777Z,48.85
2019-03-21T23:08:08.521Z,48.90
2019-03-21T23:10:38.825Z,48.95
2019-03-21T23:13:09.511Z,49.00
2019-03-21T23:15:39.844Z,49.03
2019-03-21T23:18:10.528Z,49.10
2019-03-21T23:20:40.996Z,49.14
2019-03-21T23:23:11.584Z,49.19
2019-03-21T23:25:42.243Z,49.22
2019-03-21T23:28:12.909Z,49.28
2019-03-21T23:30:43.609Z,49.35
2019-03-21T23:33:14.380Z,49.39
2019-03-21T23:35:44.764Z,49.42
2019-03-21T23:38:16.320Z,49.49
2019-03-21T23:40:47.056Z,49.55
2019-03-21T23:43:17.717Z,49.57
2019-03-21T23:45:48.389Z,49.64
2019-03-21T23:48:18.733Z,49.71
2019-03-21T23:50:49.323Z,49.73
2019-03-21T23:53:19.788Z,49.79
2019-03-21T23:55:50.415Z,49.83
2019-03-21T23:58:22.674Z,49.89
